sensor_id;sensor_type;location;lat;lon;timestamp;pressure;altitude;pressure_sealevel;temperature;humidity
73085;BME280;62974;49.460;10.892;2023-06-14T00:00:01;97394.59;;;17.86;50.64
73085;BME280;62974;49.460;10.892;2023-06-14T00:02:31;97393.78;;;17.86;50.57
73085;BME280;62974;49.460;10.892;2023-06-14T00:04:59;97393.06;;;17.68;52.27
73085;BME280;62974;49.460;10.892;2023-06-14T00:07:34;97393.69;;;17.75;51.03
73085;BME280;62974;49.460;10.892;2023-06-14T00:10:02;97394.63;;;17.64;51.77
73085;BME280;62974;49.460;10.892;2023-06-14T00:12:30;97396.94;;;17.56;51.91
73085;BME280;62974;49.460;10.892;2023-06-14T00:14:58;97378.91;;;17.66;51.25
73085;BME280;62974;49.460;10.892;2023-06-14T00:17:27;97380.44;;;17.57;52.02
73085;BME280;62974;49.460;10.892;2023-06-14T00:19:58;97379.94;;;17.60;51.02
73085;BME280;62974;49.460;10.892;2023-06-14T00:22:25;97377.94;;;17.56;52.55
73085;BME280;62974;49.460;10.892;2023-06-14T00:24:54;97376.06;;;17.56;51.41
73085;BME280;62974;49.460;10.892;2023-06-14T00:27:22;97374.59;;;17.44;52.58
73085;BME280;62974;49.460;10.892;2023-06-14T00:29:50;97373.75;;;17.43;52.62
73085;BME280;62974;49.460;10.892;2023-06-14T00:32:18;97375.06;;;17.41;51.94
73085;BME280;62974;49.460;10.892;2023-06-14T00:34:46;97370.22;;;17.43;51.98
73085;BME280;62974;49.460;10.892;2023-06-14T00:37:15;97369.78;;;17.29;53.20
73085;BME280;62974;49.460;10.892;2023-06-14T00:39:42;97371.97;;;17.32;52.53
73085;BME280;62974;49.460;10.892;2023-06-14T00:42:10;97366.00;;;17.30;52.55
73085;BME280;62974;49.460;10.892;2023-06-14T00:44:37;97369.97;;;17.22;53.27
73085;BME280;62974;49.460;10.892;2023-06-14T00:47:05;97369.97;;;17.22;52.71
73085;BME280;62974;49.460;10.892;2023-06-14T00:49:32;97358.81;;;17.19;52.88
73085;BME280;62974;49.460;10.892;2023-06-14T00:52:00;97366.38;;;17.17;52.47
73085;BME280;62974;49.460;10.892;2023-06-14T00:54:29;97365.63;;;17.21;52.58
73085;BME280;62974;49.460;10.892;2023-06-14T00:56:57;97369.84;;;17.12;53.85
73085;BME280;62974;49.460;10.892;2023-06-14T00:59:25;97369.22;;;17.05;53.60
73085;BME280;62974;49.460;10.892;2023-06-14T01:01:52;97375.25;;;17.12;52.96
73085;BME280;62974;49.460;10.892;2023-06-14T01:04:20;97374.09;;;17.03;53.99
73085;BME280;62974;49.460;10.892;2023-06-14T01:06:55;97374.84;;;16.99;54.59
73085;BME280;62974;49.460;10.892;2023-06-14T01:09:37;97378.53;;;16.92;55.20
73085;BME280;62974;49.460;10.892;2023-06-14T01:12:13;97380.69;;;16.90;54.63
73085;BME280;62974;49.460;10.892;2023-06-14T01:14:43;97370.97;;;16.95;53.99
73085;BME280;62974;49.460;10.892;2023-06-14T01:17:11;97367.88;;;16.86;54.11
73085;BME280;62974;49.460;10.892;2023-06-14T01:19:43;97379.75;;;16.80;54.80
73085;BME280;62974;49.460;10.892;2023-06-14T01:22:12;97366.00;;;16.86;54.11
73085;BME280;62974;49.460;10.892;2023-06-14T01:24:41;97377.50;;;16.77;54.54
73085;BME280;62974;49.460;10.892;2023-06-14T01:27:13;97386.41;;;16.72;55.35
73085;BME280;62974;49.460;10.892;2023-06-14T01:29:42;97381.34;;;16.59;55.70
73085;BME280;62974;49.460;10.892;2023-06-14T01:32:12;97374.47;;;16.73;54.16
73085;BME280;62974;49.460;10.892;2023-06-14T01:34:40;97375.19;;;16.64;55.24
73085;BME280;62974;49.460;10.892;2023-06-14T01:37:08;97373.44;;;16.58;55.67
73085;BME280;62974;49.460;10.892;2023-06-14T01:39:37;97376.78;;;16.65;54.74
73085;BME280;62974;49.460;10.892;2023-06-14T01:42:06;97379.03;;;16.68;54.42
73085;BME280;62974;49.460;10.892;2023-06-14T01:44:34;97382.16;;;16.43;56.27
73085;BME280;62974;49.460;10.892;2023-06-14T01:47:02;97374.25;;;16.41;55.73
73085;BME280;62974;49.460;10.892;2023-06-14T01:49:33;97379.69;;;16.41;55.63
73085;BME280;62974;49.460;10.892;2023-06-14T01:52:01;97375.66;;;16.44;55.69
73085;BME280;62974;49.460;10.892;2023-06-14T01:54:28;97372.56;;;16.35;56.22
73085;BME280;62974;49.460;10.892;2023-06-14T01:56:57;97377.47;;;16.22;57.23
73085;BME280;62974;49.460;10.892;2023-06-14T01:59:26;97375.16;;;16.30;56.09
73085;BME280;62974;49.460;10.892;2023-06-14T02:01:53;97385.69;;;16.10;58.03
73085;BME280;62974;49.460;10.892;2023-06-14T02:04:21;97375.91;;;16.26;56.18
73085;BME280;62974;49.460;10.892;2023-06-14T02:06:49;97373.13;;;16.21;55.72
73085;BME280;62974;49.460;10.892;2023-06-14T02:09:17;97376.91;;;16.20;56.05
73085;BME280;62974;49.460;10.892;2023-06-14T02:11:44;97381.00;;;16.22;56.32
73085;BME280;62974;49.460;10.892;2023-06-14T02:14:12;97380.84;;;16.12;56.53
73085;BME280;62974;49.460;10.892;2023-06-14T02:16:42;97381.09;;;16.11;57.12
73085;BME280;62974;49.460;10.892;2023-06-14T02:19:15;97377.31;;;16.12;56.66
73085;BME280;62974;49.460;10.892;2023-06-14T02:21:43;97380.38;;;15.02;61.70
73085;BME280;62974;49.460;10.892;2023-06-14T02:24:10;97376.78;;;15.81;57.67
73085;BME280;62974;49.460;10.892;2023-06-14T02:26:38;97375.34;;;16.07;56.08
73085;BME280;62974;49.460;10.892;2023-06-14T02:29:07;97376.47;;;15.94;57.59
73085;BME280;62974;49.460;10.892;2023-06-14T02:31:37;97381.81;;;15.89;57.76
73085;BME280;62974;49.460;10.892;2023-06-14T02:34:06;97380.97;;;15.89;57.55
73085;BME280;62974;49.460;10.892;2023-06-14T02:36:35;97381.13;;;15.82;57.97
73085;BME280;62974;49.460;10.892;2023-06-14T02:39:08;97380.22;;;15.77;57.50
73085;BME280;62974;49.460;10.892;2023-06-14T02:41:36;97384.56;;;15.78;58.20
73085;BME280;62974;49.460;10.892;2023-06-14T02:44:05;97382.38;;;15.75;57.83
73085;BME280;62974;49.460;10.892;2023-06-14T02:46:33;97396.06;;;15.68;58.69
73085;BME280;62974;49.460;10.892;2023-06-14T02:49:00;97393.16;;;15.58;58.94
73085;BME280;62974;49.460;10.892;2023-06-14T02:51:30;97393.91;;;15.70;57.38
73085;BME280;62974;49.460;10.892;2023-06-14T02:53:57;97395.56;;;15.71;57.14
73085;BME280;62974;49.460;10.892;2023-06-14T02:56:25;97390.25;;;15.76;56.36
73085;BME280;62974;49.460;10.892;2023-06-14T02:58:54;97394.97;;;15.53;58.36
73085;BME280;62974;49.460;10.892;2023-06-14T03:01:21;97399.19;;;15.48;59.06
73085;BME280;62974;49.460;10.892;2023-06-14T03:03:49;97399.63;;;15.45;58.80
73085;BME280;62974;49.460;10.892;2023-06-14T03:06:17;97393.03;;;15.53;57.79
73085;BME280;62974;49.460;10.892;2023-06-14T03:08:46;97407.53;;;15.47;58.66
73085;BME280;62974;49.460;10.892;2023-06-14T03:11:15;97404.38;;;15.38;59.05
73085;BME280;62974;49.460;10.892;2023-06-14T03:13:43;97402.50;;;15.39;58.91
73085;BME280;62974;49.460;10.892;2023-06-14T03:16:11;97406.69;;;15.46;58.39
73085;BME280;62974;49.460;10.892;2023-06-14T03:18:39;97400.72;;;15.44;58.10
73085;BME280;62974;49.460;10.892;2023-06-14T03:21:06;97407.91;;;15.39;58.41
73085;BME280;62974;49.460;10.892;2023-06-14T03:23:35;97401.81;;;15.32;59.01
73085;BME280;62974;49.460;10.892;2023-06-14T03:26:04;97406.75;;;15.35;59.04
73085;BME280;62974;49.460;10.892;2023-06-14T03:28:31;97409.00;;;15.26;59.56
73085;BME280;62974;49.460;10.892;2023-06-14T03:30:59;97406.75;;;15.35;59.06
73085;BME280;62974;49.460;10.892;2023-06-14T03:33:27;97409.81;;;15.27;59.11
73085;BME280;62974;49.460;10.892;2023-06-14T03:35:55;97419.81;;;15.26;59.18
73085;BME280;62974;49.460;10.892;2023-06-14T03:38:23;97419.84;;;15.15;60.48
73085;BME280;62974;49.460;10.892;2023-06-14T03:40:51;97420.78;;;15.20;59.47
73085;BME280;62974;49.460;10.892;2023-06-14T03:43:20;97430.19;;;15.18;60.33
73085;BME280;62974;49.460;10.892;2023-06-14T03:45:47;97427.81;;;15.21;60.11
73085;BME280;62974;49.460;10.892;2023-06-14T03:48:15;97419.00;;;15.26;58.88
73085;BME280;62974;49.460;10.892;2023-06-14T03:50:43;97421.47;;;15.27;58.67
73085;BME280;62974;49.460;10.892;2023-06-14T03:53:11;97433.94;;;15.28;59.92
73085;BME280;62974;49.460;10.892;2023-06-14T03:55:38;97433.09;;;15.39;59.11
73085;BME280;62974;49.460;10.892;2023-06-14T03:58:28;97442.84;;;15.29;60.05
73085;BME280;62974;49.460;10.892;2023-06-14T04:00:56;97450.59;;;15.37;59.26
73085;BME280;62974;49.460;10.892;2023-06-14T04:03:23;97450.16;;;15.40;58.69
73085;BME280;62974;49.460;10.892;2023-06-14T04:05:56;97450.16;;;15.40;58.84
73085;BME280;62974;49.460;10.892;2023-06-14T04:08:26;97456.47;;;15.45;59.62
73085;BME280;62974;49.460;10.892;2023-06-14T04:10:54;97451.19;;;15.50;58.97
73085;BME280;62974;49.460;10.892;2023-06-14T04:13:21;97452.59;;;15.53;59.23
73085;BME280;62974;49.460;10.892;2023-06-14T04:15:50;97443.84;;;15.63;58.25
73085;BME280;62974;49.460;10.892;2023-06-14T04:18:18;97454.00;;;15.44;58.97
73085;BME280;62974;49.460;10.892;2023-06-14T04:20:50;97465.34;;;15.18;60.42
73085;BME280;62974;49.460;10.892;2023-06-14T04:23:17;97465.66;;;15.56;59.53
73085;BME280;62974;49.460;10.892;2023-06-14T04:25:45;97455.78;;;15.50;59.61
73085;BME280;62974;49.460;10.892;2023-06-14T04:28:13;97465.56;;;15.79;59.92
73085;BME280;62974;49.460;10.892;2023-06-14T04:30:42;97464.47;;;15.64;58.71
73085;BME280;62974;49.460;10.892;2023-06-14T04:33:11;97464.41;;;15.75;60.30
73085;BME280;62974;49.460;10.892;2023-06-14T04:35:38;97473.63;;;14.88;61.51
73085;BME280;62974;49.460;10.892;2023-06-14T04:38:06;97482.41;;;14.48;64.65
73085;BME280;62974;49.460;10.892;2023-06-14T04:40:36;97468.25;;;15.39;61.82
73085;BME280;62974;49.460;10.892;2023-06-14T04:43:09;97475.09;;;15.30;61.30
73085;BME280;62974;49.460;10.892;2023-06-14T04:45:39;97460.53;;;16.00;57.78
73085;BME280;62974;49.460;10.892;2023-06-14T04:48:07;97484.38;;;14.41;62.89
73085;BME280;62974;49.460;10.892;2023-06-14T04:50:36;97476.22;;;15.58;60.39
73085;BME280;62974;49.460;10.892;2023-06-14T04:53:03;97478.41;;;15.32;61.91
73085;BME280;62974;49.460;10.892;2023-06-14T04:55:33;97488.75;;;14.89;62.90
73085;BME280;62974;49.460;10.892;2023-06-14T04:58:00;97478.13;;;15.34;62.22
73085;BME280;62974;49.460;10.892;2023-06-14T05:00:28;97488.44;;;15.09;62.59
73085;BME280;62974;49.460;10.892;2023-06-14T05:02:56;97484.31;;;15.69;60.90
73085;BME280;62974;49.460;10.892;2023-06-14T05:05:24;97505.13;;;14.82;63.40
73085;BME280;62974;49.460;10.892;2023-06-14T05:07:53;97501.72;;;14.98;63.58
73085;BME280;62974;49.460;10.892;2023-06-14T05:10:20;97495.25;;;14.88;63.56
73085;BME280;62974;49.460;10.892;2023-06-14T05:12:48;97496.91;;;15.00;64.51
73085;BME280;62974;49.460;10.892;2023-06-14T05:15:16;97485.31;;;15.52;62.18
73085;BME280;62974;49.460;10.892;2023-06-14T05:17:45;97488.25;;;15.90;59.72
73085;BME280;62974;49.460;10.892;2023-06-14T05:20:14;97480.84;;;16.14;59.06
73085;BME280;62974;49.460;10.892;2023-06-14T05:22:42;97488.03;;;15.40;62.33
73085;BME280;62974;49.460;10.892;2023-06-14T05:25:10;97492.97;;;15.31;62.09
73085;BME280;62974;49.460;10.892;2023-06-14T05:27:38;97491.31;;;15.54;62.49
73085;BME280;62974;49.460;10.892;2023-06-14T05:30:09;97488.59;;;15.54;62.11
73085;BME280;62974;49.460;10.892;2023-06-14T05:32:37;97486.53;;;16.01;60.85
73085;BME280;62974;49.460;10.892;2023-06-14T05:35:05;97499.31;;;15.60;62.52
73085;BME280;62974;49.460;10.892;2023-06-14T05:37:33;97496.47;;;15.67;62.38
73085;BME280;62974;49.460;10.892;2023-06-14T05:40:00;97503.91;;;15.36;62.94
73085;BME280;62974;49.460;10.892;2023-06-14T05:42:31;97509.81;;;15.22;63.98
73085;BME280;62974;49.460;10.892;2023-06-14T05:44:59;97503.28;;;15.46;64.64
73085;BME280;62974;49.460;10.892;2023-06-14T05:47:27;97497.66;;;15.59;62.85
73085;BME280;62974;49.460;10.892;2023-06-14T05:49:54;97508.16;;;15.56;63.63
73085;BME280;62974;49.460;10.892;2023-06-14T05:52:22;97502.91;;;16.06;62.91
73085;BME280;62974;49.460;10.892;2023-06-14T05:54:49;97508.03;;;16.19;62.14
73085;BME280;62974;49.460;10.892;2023-06-14T05:57:17;97508.69;;;15.97;62.88
73085;BME280;62974;49.460;10.892;2023-06-14T05:59:46;97507.47;;;15.77;62.32
73085;BME280;62974;49.460;10.892;2023-06-14T06:02:13;97511.13;;;16.11;62.45
73085;BME280;62974;49.460;10.892;2023-06-14T06:04:41;97516.34;;;16.01;62.56
73085;BME280;62974;49.460;10.892;2023-06-14T06:07:09;97516.31;;;15.84;62.99
73085;BME280;62974;49.460;10.892;2023-06-14T06:09:36;97515.16;;;15.96;62.56
73085;BME280;62974;49.460;10.892;2023-06-14T06:12:06;97515.09;;;15.40;63.48
73085;BME280;62974;49.460;10.892;2023-06-14T06:14:34;97514.91;;;15.70;63.74
73085;BME280;62974;49.460;10.892;2023-06-14T06:17:03;97519.06;;;15.72;63.91
73085;BME280;62974;49.460;10.892;2023-06-14T06:19:31;97507.22;;;16.35;61.54
73085;BME280;62974;49.460;10.892;2023-06-14T06:21:58;97512.72;;;15.95;62.61
73085;BME280;62974;49.460;10.892;2023-06-14T06:24:26;97524.94;;;15.58;63.40
73085;BME280;62974;49.460;10.892;2023-06-14T06:26:54;97520.34;;;15.70;64.76
73085;BME280;62974;49.460;10.892;2023-06-14T06:29:21;97515.69;;;16.38;62.29
73085;BME280;62974;49.460;10.892;2023-06-14T06:31:49;97516.97;;;16.81;59.83
73085;BME280;62974;49.460;10.892;2023-06-14T06:34:18;97519.44;;;16.99;60.91
73085;BME280;62974;49.460;10.892;2023-06-14T06:36:45;97526.22;;;17.35;62.02
73085;BME280;62974;49.460;10.892;2023-06-14T06:39:13;97522.81;;;16.89;59.23
73085;BME280;62974;49.460;10.892;2023-06-14T06:41:41;97531.22;;;16.71;60.67
73085;BME280;62974;49.460;10.892;2023-06-14T06:44:08;97528.16;;;17.01;59.46
73085;BME280;62974;49.460;10.892;2023-06-14T06:46:37;97534.56;;;17.12;60.42
73085;BME280;62974;49.460;10.892;2023-06-14T06:49:06;97514.97;;;17.10;60.07
73085;BME280;62974;49.460;10.892;2023-06-14T06:51:37;97526.78;;;17.37;58.90
73085;BME280;62974;49.460;10.892;2023-06-14T06:54:04;97530.44;;;17.48;57.97
73085;BME280;62974;49.460;10.892;2023-06-14T06:56:34;97530.22;;;17.32;58.83
73085;BME280;62974;49.460;10.892;2023-06-14T06:59:02;97524.38;;;17.57;57.73
73085;BME280;62974;49.460;10.892;2023-06-14T07:01:29;97531.47;;;17.42;58.53
73085;BME280;62974;49.460;10.892;2023-06-14T07:04:00;97538.66;;;16.98;59.29
73085;BME280;62974;49.460;10.892;2023-06-14T07:06:29;97539.91;;;17.07;60.02
73085;BME280;62974;49.460;10.892;2023-06-14T07:08:58;97531.34;;;17.53;58.75
73085;BME280;62974;49.460;10.892;2023-06-14T07:11:27;97535.94;;;17.14;58.86
73085;BME280;62974;49.460;10.892;2023-06-14T07:13:55;97538.75;;;17.03;59.39
73085;BME280;62974;49.460;10.892;2023-06-14T07:16:22;97522.88;;;17.50;58.27
73085;BME280;62974;49.460;10.892;2023-06-14T07:18:50;97528.94;;;17.57;56.95
73085;BME280;62974;49.460;10.892;2023-06-14T07:21:17;97526.16;;;17.90;55.98
73085;BME280;62974;49.460;10.892;2023-06-14T07:23:45;97540.16;;;16.88;57.57
73085;BME280;62974;49.460;10.892;2023-06-14T07:26:14;97544.50;;;16.89;58.38
73085;BME280;62974;49.460;10.892;2023-06-14T07:28:42;97544.59;;;17.66;58.38
73085;BME280;62974;49.460;10.892;2023-06-14T07:31:11;97536.13;;;18.33;56.10
73085;BME280;62974;49.460;10.892;2023-06-14T07:33:40;97538.22;;;18.26;55.35
73085;BME280;62974;49.460;10.892;2023-06-14T07:36:08;97533.88;;;18.52;54.67
73085;BME280;62974;49.460;10.892;2023-06-14T07:38:36;97544.13;;;19.03;56.23
73085;BME280;62974;49.460;10.892;2023-06-14T07:41:03;97539.50;;;19.41;55.83
73085;BME280;62974;49.460;10.892;2023-06-14T07:43:32;97536.72;;;18.35;53.09
73085;BME280;62974;49.460;10.892;2023-06-14T07:46:00;97539.44;;;18.62;53.51
73085;BME280;62974;49.460;10.892;2023-06-14T07:48:33;97540.47;;;18.88;53.15
73085;BME280;62974;49.460;10.892;2023-06-14T07:51:01;97545.53;;;19.06;55.27
73085;BME280;62974;49.460;10.892;2023-06-14T07:53:29;97544.09;;;18.98;51.84
73085;BME280;62974;49.460;10.892;2023-06-14T07:55:57;97542.53;;;19.07;52.18
73085;BME280;62974;49.460;10.892;2023-06-14T07:58:24;97543.69;;;19.53;51.95
73085;BME280;62974;49.460;10.892;2023-06-14T08:00:53;97546.78;;;19.30;51.38
73085;BME280;62974;49.460;10.892;2023-06-14T08:03:21;97548.53;;;19.93;51.73
73085;BME280;62974;49.460;10.892;2023-06-14T08:05:49;97551.00;;;20.00;51.83
73085;BME280;62974;49.460;10.892;2023-06-14T08:08:17;97552.25;;;19.30;49.44
73085;BME280;62974;49.460;10.892;2023-06-14T08:10:44;97561.88;;;19.90;52.78
73085;BME280;62974;49.460;10.892;2023-06-14T08:13:12;97559.28;;;19.68;48.99
73085;BME280;62974;49.460;10.892;2023-06-14T08:15:40;97555.63;;;19.47;48.44
73085;BME280;62974;49.460;10.892;2023-06-14T08:18:08;97543.03;;;19.41;48.06
73085;BME280;62974;49.460;10.892;2023-06-14T08:20:36;97547.06;;;19.76;48.13
73085;BME280;62974;49.460;10.892;2023-06-14T08:23:04;97555.66;;;19.52;48.43
73085;BME280;62974;49.460;10.892;2023-06-14T08:25:31;97562.69;;;19.95;49.70
73085;BME280;62974;49.460;10.892;2023-06-14T08:27:59;97562.09;;;19.83;47.19
73085;BME280;62974;49.460;10.892;2023-06-14T08:30:27;97560.56;;;20.02;47.36
73085;BME280;62974;49.460;10.892;2023-06-14T08:32:54;97553.50;;;20.11;47.12
73085;BME280;62974;49.460;10.892;2023-06-14T08:35:42;97553.91;;;19.78;46.42
73085;BME280;62974;49.460;10.892;2023-06-14T08:38:10;97559.00;;;19.64;45.78
73085;BME280;62974;49.460;10.892;2023-06-14T08:40:39;97562.97;;;19.94;46.47
73085;BME280;62974;49.460;10.892;2023-06-14T08:43:07;97557.41;;;20.36;46.54
73085;BME280;62974;49.460;10.892;2023-06-14T08:45:35;97549.69;;;20.23;46.73
73085;BME280;62974;49.460;10.892;2023-06-14T08:48:05;97544.06;;;20.54;46.05
73085;BME280;62974;49.460;10.892;2023-06-14T08:50:34;97562.38;;;20.49;47.70
73085;BME280;62974;49.460;10.892;2023-06-14T08:53:07;97560.00;;;20.00;47.49
73085;BME280;62974;49.460;10.892;2023-06-14T08:55:37;97552.69;;;20.16;46.10
73085;BME280;62974;49.460;10.892;2023-06-14T08:58:09;97552.16;;;20.24;44.64
73085;BME280;62974;49.460;10.892;2023-06-14T09:00:41;97552.94;;;20.14;44.96
73085;BME280;62974;49.460;10.892;2023-06-14T09:03:10;97561.31;;;19.93;44.59
73085;BME280;62974;49.460;10.892;2023-06-14T09:05:40;97566.97;;;19.76;46.80
73085;BME280;62974;49.460;10.892;2023-06-14T09:08:12;97559.91;;;19.80;45.19
73085;BME280;62974;49.460;10.892;2023-06-14T09:10:40;97556.09;;;20.48;45.65
73085;BME280;62974;49.460;10.892;2023-06-14T09:13:07;97564.91;;;21.16;46.70
73085;BME280;62974;49.460;10.892;2023-06-14T09:15:35;97568.19;;;20.05;43.29
73085;BME280;62974;49.460;10.892;2023-06-14T09:18:03;97555.56;;;20.61;43.00
73085;BME280;62974;49.460;10.892;2023-06-14T09:20:32;97555.28;;;20.53;42.39
73085;BME280;62974;49.460;10.892;2023-06-14T09:23:00;97556.66;;;20.66;43.36
73085;BME280;62974;49.460;10.892;2023-06-14T09:25:29;97564.59;;;20.62;43.13
73085;BME280;62974;49.460;10.892;2023-06-14T09:28:06;97562.72;;;21.13;43.93
73085;BME280;62974;49.460;10.892;2023-06-14T09:30:37;97572.00;;;21.02;45.27
73085;BME280;62974;49.460;10.892;2023-06-14T09:33:05;97568.41;;;20.86;44.34
73085;BME280;62974;49.460;10.892;2023-06-14T09:35:32;97568.59;;;20.39;45.37
73085;BME280;62974;49.460;10.892;2023-06-14T09:38:00;97566.19;;;20.53;44.83
73085;BME280;62974;49.460;10.892;2023-06-14T09:40:33;97577.41;;;20.87;45.09
73085;BME280;62974;49.460;10.892;2023-06-14T09:43:03;97591.88;;;20.00;45.96
73085;BME280;62974;49.460;10.892;2023-06-14T09:45:31;97579.16;;;19.63;46.19
73085;BME280;62974;49.460;10.892;2023-06-14T09:47:59;97575.00;;;19.98;45.79
73085;BME280;62974;49.460;10.892;2023-06-14T09:50:33;97574.72;;;21.02;44.12
73085;BME280;62974;49.460;10.892;2023-06-14T09:53:03;97575.00;;;21.16;44.64
73085;BME280;62974;49.460;10.892;2023-06-14T09:55:36;97576.66;;;21.37;42.46
73085;BME280;62974;49.460;10.892;2023-06-14T09:58:05;97569.78;;;21.04;43.33
73085;BME280;62974;49.460;10.892;2023-06-14T10:00:35;97584.34;;;20.17;44.90
73085;BME280;62974;49.460;10.892;2023-06-14T10:03:06;97577.72;;;20.03;44.94
73085;BME280;62974;49.460;10.892;2023-06-14T10:05:39;97573.81;;;20.51;45.28
73085;BME280;62974;49.460;10.892;2023-06-14T10:08:10;97574.94;;;21.66;44.84
73085;BME280;62974;49.460;10.892;2023-06-14T10:10:40;97577.69;;;20.75;43.51
73085;BME280;62974;49.460;10.892;2023-06-14T10:13:07;97577.06;;;20.43;44.29
73085;BME280;62974;49.460;10.892;2023-06-14T10:15:41;97578.69;;;20.29;45.71
73085;BME280;62974;49.460;10.892;2023-06-14T10:18:16;97574.06;;;20.34;44.10
73085;BME280;62974;49.460;10.892;2023-06-14T10:20:53;97566.78;;;20.70;42.91
73085;BME280;62974;49.460;10.892;2023-06-14T10:23:24;97577.94;;;20.53;44.47
73085;BME280;62974;49.460;10.892;2023-06-14T10:25:57;97563.44;;;20.48;43.77
73085;BME280;62974;49.460;10.892;2023-06-14T10:28:26;97579.28;;;20.51;46.02
73085;BME280;62974;49.460;10.892;2023-06-14T10:31:03;97573.88;;;20.76;44.52
73085;BME280;62974;49.460;10.892;2023-06-14T10:33:32;97568.16;;;21.03;43.35
73085;BME280;62974;49.460;10.892;2023-06-14T10:36:24;97569.78;;;20.84;44.29
73085;BME280;62974;49.460;10.892;2023-06-14T10:38:57;97568.72;;;20.90;43.40
73085;BME280;62974;49.460;10.892;2023-06-14T10:41:27;97565.94;;;20.75;42.85
73085;BME280;62974;49.460;10.892;2023-06-14T10:46:59;97571.44;;;20.90;42.59
73085;BME280;62974;49.460;10.892;2023-06-14T10:49:41;97578.28;;;21.13;44.94
73085;BME280;62974;49.460;10.892;2023-06-14T10:52:10;97573.06;;;20.91;43.48
73085;BME280;62974;49.460;10.892;2023-06-14T10:55:02;97573.63;;;20.93;42.80
73085;BME280;62974;49.460;10.892;2023-06-14T10:57:33;97561.00;;;21.73;40.60
73085;BME280;62974;49.460;10.892;2023-06-14T11:00:16;97556.31;;;21.83;38.98
73085;BME280;62974;49.460;10.892;2023-06-14T11:02:52;97559.31;;;21.92;38.69
73085;BME280;62974;49.460;10.892;2023-06-14T11:05:26;97561.22;;;21.96;39.10
73085;BME280;62974;49.460;10.892;2023-06-14T11:08:17;97572.41;;;22.00;41.50
73085;BME280;62974;49.460;10.892;2023-06-14T11:10:49;97571.94;;;21.68;40.58
73085;BME280;62974;49.460;10.892;2023-06-14T11:13:19;97565.72;;;21.01;39.47
73085;BME280;62974;49.460;10.892;2023-06-14T11:15:47;97578.00;;;21.19;41.81
73085;BME280;62974;49.460;10.892;2023-06-14T11:18:15;97580.19;;;21.22;42.22
73085;BME280;62974;49.460;10.892;2023-06-14T11:20:46;97574.75;;;21.12;41.74
73085;BME280;62974;49.460;10.892;2023-06-14T11:23:13;97580.19;;;21.37;44.67
73085;BME280;62974;49.460;10.892;2023-06-14T11:25:41;97560.69;;;21.89;39.97
73085;BME280;62974;49.460;10.892;2023-06-14T11:28:09;97553.09;;;22.84;40.26
73085;BME280;62974;49.460;10.892;2023-06-14T11:30:38;97563.31;;;22.20;39.28
73085;BME280;62974;49.460;10.892;2023-06-14T11:33:09;97555.22;;;21.84;42.14
73085;BME280;62974;49.460;10.892;2023-06-14T11:35:37;97559.56;;;21.90;41.90
73085;BME280;62974;49.460;10.892;2023-06-14T11:38:05;97560.94;;;21.88;40.66
73085;BME280;62974;49.460;10.892;2023-06-14T11:40:32;97559.34;;;21.77;40.35
73085;BME280;62974;49.460;10.892;2023-06-14T11:43:00;97560.78;;;21.49;38.51
73085;BME280;62974;49.460;10.892;2023-06-14T11:45:28;97565.69;;;21.52;40.41
73085;BME280;62974;49.460;10.892;2023-06-14T11:47:58;97576.34;;;21.48;42.60
73085;BME280;62974;49.460;10.892;2023-06-14T11:50:27;97574.47;;;21.29;41.76
73085;BME280;62974;49.460;10.892;2023-06-14T11:52:56;97560.78;;;20.98;40.40
73085;BME280;62974;49.460;10.892;2023-06-14T11:55:26;97559.63;;;21.70;41.08
73085;BME280;62974;49.460;10.892;2023-06-14T11:57:54;97554.88;;;22.11;40.32
73085;BME280;62974;49.460;10.892;2023-06-14T12:00:24;97549.78;;;22.43;39.80
73085;BME280;62974;49.460;10.892;2023-06-14T12:02:54;97548.00;;;22.63;40.82
73085;BME280;62974;49.460;10.892;2023-06-14T12:05:24;97553.63;;;21.73;41.45
73085;BME280;62974;49.460;10.892;2023-06-14T12:07:58;97559.16;;;21.28;41.67
73085;BME280;62974;49.460;10.892;2023-06-14T12:10:27;97560.81;;;21.24;40.54
73085;BME280;62974;49.460;10.892;2023-06-14T12:12:57;97557.50;;;20.96;41.33
73085;BME280;62974;49.460;10.892;2023-06-14T12:15:28;97564.03;;;21.10;42.63
73085;BME280;62974;49.460;10.892;2023-06-14T12:17:57;97558.88;;;20.99;41.27
73085;BME280;62974;49.460;10.892;2023-06-14T12:20:30;97565.97;;;21.05;41.18
73085;BME280;62974;49.460;10.892;2023-06-14T12:22:59;97562.44;;;21.15;40.57
73085;BME280;62974;49.460;10.892;2023-06-14T12:25:30;97563.50;;;21.08;41.15
73085;BME280;62974;49.460;10.892;2023-06-14T12:27:59;97568.47;;;21.22;41.88
73085;BME280;62974;49.460;10.892;2023-06-14T12:30:27;97565.72;;;21.37;42.16
73085;BME280;62974;49.460;10.892;2023-06-14T12:32:55;97557.78;;;21.45;40.02
73085;BME280;62974;49.460;10.892;2023-06-14T12:35:23;97559.41;;;21.51;39.66
73085;BME280;62974;49.460;10.892;2023-06-14T12:37:52;97562.88;;;21.82;41.30
73085;BME280;62974;49.460;10.892;2023-06-14T12:40:21;97560.16;;;21.92;41.23
73085;BME280;62974;49.460;10.892;2023-06-14T12:42:49;97544.06;;;21.66;38.95
73085;BME280;62974;49.460;10.892;2023-06-14T12:45:16;97553.97;;;21.36;37.98
73085;BME280;62974;49.460;10.892;2023-06-14T12:47:47;97561.06;;;21.32;39.52
73085;BME280;62974;49.460;10.892;2023-06-14T12:50:15;97564.00;;;21.71;39.39
73085;BME280;62974;49.460;10.892;2023-06-14T12:52:43;97546.19;;;22.48;36.85
73085;BME280;62974;49.460;10.892;2023-06-14T12:55:12;97552.72;;;22.57;36.76
73085;BME280;62974;49.460;10.892;2023-06-14T12:57:40;97564.50;;;22.53;38.06
73085;BME280;62974;49.460;10.892;2023-06-14T13:00:09;97556.94;;;22.83;37.39
73085;BME280;62974;49.460;10.892;2023-06-14T13:02:37;97558.97;;;22.63;38.09